Weather reports worldwide

Advertisment
Nordseeboje II, Germany (10008): temperature & dewpoint: 12.01.2018 07:00:00 - 18.01.2018 07:00:00 (CET)Nordseeboje II, Germany (10008): water temperature: 12.01.2018 07:00:00 - 18.01.2018 07:00:00 (CET)Nordseeboje II, Germany (10008): wind speed: 12.01.2018 07:00:00 - 18.01.2018 07:00:00 (CET)Nordseeboje II, Germany (10008): wind direction: 12.01.2018 07:00:00 - 18.01.2018 07:00:00 (CET)Nordseeboje II, Germany (10008): reduced air pressure: 12.01.2018 07:00:00 - 18.01.2018 07:00:00 (CET)
Date & Time tt [°C] td [°C] tw [°C] ff [km/h] ff [kn] dd ppp [hPa]
18.01.2018 07:00:00 - - - - - - -
18.01.2018 06:00:00 3,5 1,3 - - - - -
18.01.2018 05:00:00 4,6 0,9 6,6 - - - 989,5
18.01.2018 04:00:00 5,7 1,6 6,6 - - - 991,4
18.01.2018 03:00:00 5,7 1,4 6,7 - - - 992,6
18.01.2018 02:00:00 6,0 1,4 6,7 - - - 993,6
18.01.2018 01:00:00 5,2 1,7 6,7 - - - 994,3
18.01.2018 00:00:00 5,6 1,7 6,8 - - - 994,9
17.01.2018 23:00:00 6,1 2,0 6,8 - - - 994,8
17.01.2018 22:00:00 6,3 1,1 6,8 - - - 994,9
17.01.2018 21:00:00 6,2 1,8 6,6 - - - 994,9
17.01.2018 20:00:00 5,6 1,7 6,6 - - - 994,4
17.01.2018 19:00:00 5,9 2,0 6,7 - - - 994,3
17.01.2018 18:00:00 - - 6,6 - - - 994,1
17.01.2018 17:00:00 5,0 1,1 - - - - -
17.01.2018 16:00:00 3,3 0,9 6,9 - - - 993,0
17.01.2018 15:00:00 - - 6,8 - - - 992,0
17.01.2018 14:00:00 - 0,1 6,7 169 91 N 991,2
17.01.2018 13:00:00 - - 6,8 - - - 990,7
17.01.2018 12:00:00 4,4 0,5 6,8 - - - 990,1
17.01.2018 11:00:00 - - - - - - -
17.01.2018 10:00:00 3,6 0,4 6,7 - - - 988,5
17.01.2018 09:00:00 - 0,7 6,7 94 51 N 987,8
17.01.2018 08:00:00 4,2 -0,9 6,7 - - - 986,5
17.01.2018 07:00:00 4,2 -1,1 6,7 - - - 985,5
17.01.2018 06:00:00 5,2 -0,1 6,6 - - - 985,0
17.01.2018 05:00:00 4,4 -0,1 6,7 - - - 984,2
17.01.2018 04:00:00 - - - - - - -
17.01.2018 03:00:00 - - - - - - -
17.01.2018 02:00:00 5,4 0,0 6,7 - - - 983,5
17.01.2018 01:00:00 4,3 1,2 6,7 - - - 983,9
17.01.2018 00:00:00 3,0 0,6 6,8 - - - 984,0
16.01.2018 23:00:00 4,5 0,3 6,7 - - - 983,8
16.01.2018 22:00:00 5,6 0,9 6,5 - - - 983,5
16.01.2018 21:00:00 5,2 -0,1 6,9 - - - 983,6
16.01.2018 20:00:00 5,7 1,2 6,9 - - - 983,6
16.01.2018 19:00:00 - - - - - - -
16.01.2018 18:00:00 5,7 0,9 6,7 - - - 983,8
16.01.2018 17:00:00 4,8 1,5 6,9 - - - 984,3
16.01.2018 16:00:00 5,9 1,6 6,9 - - - 984,0
16.01.2018 15:00:00 5,9 1,8 6,9 - - - 983,3
16.01.2018 14:00:00 5,7 1,8 6,8 - - - 983,2
16.01.2018 13:00:00 - - - - - - -
16.01.2018 12:00:00 - - - - - - -
16.01.2018 11:00:00 4,8 1,2 7,0 - - - 982,4
16.01.2018 10:00:00 1,0 1,7 6,7 - - - 981,9
16.01.2018 09:00:00 5,2 2,1 6,8 - - - 981,5
16.01.2018 08:00:00 - - - - - - -
16.01.2018 07:00:00 5,1 2,1 6,8 - - - 980,9
16.01.2018 06:00:00 5,3 2,4 6,6 - - - 980,8
16.01.2018 05:00:00 3,2 0,1 6,7 - - - 981,6
16.01.2018 04:00:00 6,3 2,4 6,9 - - - 981,2
16.01.2018 03:00:00 5,9 2,4 6,9 - - - 981,3
16.01.2018 02:00:00 6,6 3,1 6,9 - - - 981,2
16.01.2018 01:00:00 7,0 4,5 6,9 - - - 980,8
16.01.2018 00:00:00 5,9 4,1 - - - - -
15.01.2018 23:00:00 6,4 5,3 6,9 - - - 980,3
15.01.2018 22:00:00 - - - - - - -
15.01.2018 21:00:00 - - - - - - -
15.01.2018 20:00:00 - - 6,9 - - - 983,2
15.01.2018 19:00:00 6,1 5,2 7,0 - - - 984,9
15.01.2018 18:00:00 5,8 5,0 6,9 - - - 986,1
15.01.2018 17:00:00 5,8 4,4 6,8 - - - 987,8
15.01.2018 16:00:00 - - 6,9 - - - 989,5
15.01.2018 15:00:00 - - 7,0 - - - 991,3
15.01.2018 14:00:00 - - 6,8 98 53 N 993,0
15.01.2018 13:00:00 5,2 4,1 6,9 - - - 995,6
15.01.2018 12:00:00 5,0 - 6,9 - - - -
15.01.2018 11:00:00 5,1 3,6 6,7 - - - 999,7
15.01.2018 10:00:00 5,0 3,5 6,8 - - - 1001,4
15.01.2018 09:00:00 4,7 3,5 - - - - 1002,8
15.01.2018 08:00:00 4,5 3,1 6,7 - - - 1003,9
15.01.2018 07:00:00 - - - - - - -
15.01.2018 06:00:00 4,5 2,3 6,7 - - - 1006,5
15.01.2018 05:00:00 4,2 2,4 6,7 - - - 1007,9
15.01.2018 04:00:00 4,1 1,8 6,7 - - - 1009,2
15.01.2018 03:00:00 4,1 1,7 6,7 - - - 1011,0
15.01.2018 02:00:00 4,1 1,3 6,7 - - - 1012,7
15.01.2018 01:00:00 - - 6,9 - - - 1013,7
15.01.2018 00:00:00 - 0,6 6,9 126 68 N -
14.01.2018 23:00:00 3,3 0,0 6,8 - - - 1015,9
14.01.2018 22:00:00 3,3 -0,1 6,9 - - - 1017,2
14.01.2018 21:00:00 3,1 -0,7 6,9 - - - 1017,9
14.01.2018 20:00:00 3,1 -0,8 6,9 - - - 1018,5
14.01.2018 19:00:00 2,5 -2,0 - - - - 1019,4
14.01.2018 18:00:00 2,0 -42,4 6,8 - - - 1020,1
14.01.2018 17:00:00 1,9 -2,9 6,9 - - - 1020,9
14.01.2018 16:00:00 1,9 -2,4 6,8 - - - 1022,1
14.01.2018 15:00:00 1,8 -2,3 6,8 - - - 1022,4
14.01.2018 14:00:00 1,9 -2,2 6,8 - - - 1022,8
14.01.2018 13:00:00 1,3 -2,8 6,8 - - - 1023,6
14.01.2018 12:00:00 1,6 -2,2 7,0 - - - 1024,1
14.01.2018 11:00:00 - - - - - - -
14.01.2018 10:00:00 1,9 -1,9 6,9 - - - 1024,9
14.01.2018 09:00:00 2,7 -1,2 6,9 - - - 1025,0
14.01.2018 08:00:00 3,4 0,0 7,0 - - - 1025,1
14.01.2018 07:00:00 - - - - - - -
14.01.2018 06:00:00 2,7 -0,1 - - - - 1025,5
14.01.2018 05:00:00 2,6 0,0 6,9 - - - 1025,9
14.01.2018 04:00:00 2,7 -0,1 6,9 - - - 1026,1
14.01.2018 03:00:00 3,0 0,4 7,0 - - - 1026,4
14.01.2018 02:00:00 3,3 0,8 6,9 - - - 1026,6
14.01.2018 01:00:00 - 1,1 7,0 115 62 N 1026,7
14.01.2018 00:00:00 3,4 1,2 6,9 - - - 1026,9
13.01.2018 23:00:00 - - - - - - -
13.01.2018 22:00:00 - 2,0 7,1 72 39 N 1027,0
13.01.2018 21:00:00 3,7 2,6 7,0 - - - 1026,9
13.01.2018 20:00:00 - - - - - - -
13.01.2018 19:00:00 4,0 2,7 7,0 - - - 1026,9
13.01.2018 18:00:00 - - 7,1 - - - 1026,7
13.01.2018 17:00:00 - - 7,3 - - - 1026,9
13.01.2018 16:00:00 4,2 3,1 7,1 - - - 1026,7
13.01.2018 15:00:00 4,5 3,4 7,1 - - - 1026,8
13.01.2018 14:00:00 - 3,5 - 158 86 N 1027,2
13.01.2018 13:00:00 4,6 3,7 7,0 - - - 1027,6
13.01.2018 12:00:00 - - 7,1 - - - 1027,7
13.01.2018 11:00:00 4,4 3,2 7,0 - - - 1027,6
13.01.2018 10:00:00 - - 7,0 - - - 1027,5
13.01.2018 09:00:00 3,9 2,8 7,0 - - - 1027,4
13.01.2018 08:00:00 3,6 2,5 7,0 - - - 1027,4
13.01.2018 07:00:00 3,4 2,2 7,0 - - - 1027,6
13.01.2018 06:00:00 3,8 2,2 6,9 - - - 1027,7
13.01.2018 05:00:00 - 2,0 7,0 - - - 1028,0
13.01.2018 04:00:00 - - 6,9 - - - 1028,5
13.01.2018 03:00:00 7,9 1,5 6,9 - - - 1028,9
13.01.2018 02:00:00 4,2 2,0 7,0 - - - 1028,8
13.01.2018 01:00:00 3,8 2,1 7,1 - - - 1028,9
13.01.2018 00:00:00 3,8 2,2 - - - - -
12.01.2018 23:00:00 4,0 2,3 7,2 - - - 1029,2
12.01.2018 22:00:00 - - - - - - -
12.01.2018 21:00:00 4,1 2,5 7,1 - - - 1029,2
12.01.2018 20:00:00 4,1 1,9 7,2 - - - 1029,0
12.01.2018 19:00:00 - - - - - - -
12.01.2018 18:00:00 4,0 2,3 - - - - 1029,1
12.01.2018 17:00:00 4,6 3,0 7,0 - - - 1029,0
12.01.2018 16:00:00 - - - - - - -
12.01.2018 15:00:00 - - 7,2 - - - 1028,6
12.01.2018 14:00:00 4,1 2,9 7,0 - - - 1028,7
12.01.2018 13:00:00 - - 6,9 - - - 1028,8
12.01.2018 12:00:00 3,9 2,4 7,2 - - - 1029,1
12.01.2018 11:00:00 - - - - - - -
12.01.2018 10:00:00 - - - - - - -
12.01.2018 09:00:00 - - - - - - -
12.01.2018 08:00:00 4,8 2,9 7,1 - - - 1027,2
12.01.2018 07:00:00 4,5 2,5 7,2 - - - 1026,6

tt = temperature
td = dewpoint
tw = water temperature
ff = wind speed
dd = wind direction
ppp = reduced air pressure

Next stations